LFOJ

Orléans-Bricy (BA 123) Air Base

Airport
ICAO code
LFOJ
IATA Code
ORE
Summary
ICAO Region
EUR
ICAO Territory
Location

, Centre

Serving
Orleans
Elevation
412 ft
Coordinates
47° 59' 16" N , 1° 45' 38" E
Metar
Observation
LFOJ 280530Z AUTO 23006KT 9000 OVC002 08/08 Q1011 TEMPO 4000 -RA BECMG BKN008 BKN012
Station
Orleans
Date/Time
2022-11-28 05:30:00
Wind direction
230°
Wind speed
06 kts
Lowest cloud amount
overcast
Temperature
8°C
Dew point
8°C
Humidity
100%
QNH
1011 hPa
Weather condition
n/a

Runways

Designator Length Width Surface Rops
7/25 2404 45 ASP No/No

Airport map

Aerial View

SKYbrary Partners:

Safety knowledge contributed by: